sensor_id;sensor_type;location;lat;lon;timestamp;P1;durP1;ratioP1;P2;durP2;ratioP2
30539;SDS011;17321;46.312;4.776;2024-02-26T00:00:03;1.80;;;0.52;;
30539;SDS011;17321;46.312;4.776;2024-02-26T00:02:30;1.30;;;0.43;;
30539;SDS011;17321;46.312;4.776;2024-02-26T00:04:58;2.07;;;0.87;;
30539;SDS011;17321;46.312;4.776;2024-02-26T00:07:24;0.73;;;0.40;;
30539;SDS011;17321;46.312;4.776;2024-02-26T00:09:50;0.70;;;0.40;;
30539;SDS011;17321;46.312;4.776;2024-02-26T00:12:16;1.77;;;0.65;;
30539;SDS011;17321;46.312;4.776;2024-02-26T00:14:42;0.70;;;0.52;;
30539;SDS011;17321;46.312;4.776;2024-02-26T00:17:10;0.50;;;0.40;;
30539;SDS011;17321;46.312;4.776;2024-02-26T00:19:36;1.02;;;0.57;;
30539;SDS011;17321;46.312;4.776;2024-02-26T00:22:02;5.75;;;0.73;;
30539;SDS011;17321;46.312;4.776;2024-02-26T00:24:28;4.05;;;0.68;;
30539;SDS011;17321;46.312;4.776;2024-02-26T00:26:54;0.75;;;0.52;;
30539;SDS011;17321;46.312;4.776;2024-02-26T00:29:20;2.83;;;0.40;;
30539;SDS011;17321;46.312;4.776;2024-02-26T00:31:46;0.90;;;0.70;;
30539;SDS011;17321;46.312;4.776;2024-02-26T00:34:12;0.95;;;0.30;;
30539;SDS011;17321;46.312;4.776;2024-02-26T00:36:38;0.52;;;0.28;;
30539;SDS011;17321;46.312;4.776;2024-02-26T00:39:04;1.02;;;0.45;;
30539;SDS011;17321;46.312;4.776;2024-02-26T00:41:31;0.50;;;0.40;;
30539;SDS011;17321;46.312;4.776;2024-02-26T00:43:57;1.00;;;0.50;;
30539;SDS011;17321;46.312;4.776;2024-02-26T00:46:23;0.70;;;0.50;;
30539;SDS011;17321;46.312;4.776;2024-02-26T00:48:50;1.90;;;0.35;;
30539;SDS011;17321;46.312;4.776;2024-02-26T00:51:16;0.30;;;0.28;;
30539;SDS011;17321;46.312;4.776;2024-02-26T00:53:42;0.60;;;0.40;;
30539;SDS011;17321;46.312;4.776;2024-02-26T00:56:07;0.40;;;0.20;;
30539;SDS011;17321;46.312;4.776;2024-02-26T00:58:33;1.27;;;0.30;;
30539;SDS011;17321;46.312;4.776;2024-02-26T01:00:59;0.75;;;0.30;;
30539;SDS011;17321;46.312;4.776;2024-02-26T01:03:25;0.15;;;0.13;;
30539;SDS011;17321;46.312;4.776;2024-02-26T01:05:51;0.68;;;0.20;;
30539;SDS011;17321;46.312;4.776;2024-02-26T01:08:17;1.55;;;0.47;;
30539;SDS011;17321;46.312;4.776;2024-02-26T01:10:43;2.17;;;0.30;;
30539;SDS011;17321;46.312;4.776;2024-02-26T01:13:10;0.20;;;0.10;;
30539;SDS011;17321;46.312;4.776;2024-02-26T01:15:36;0.40;;;0.30;;
30539;SDS011;17321;46.312;4.776;2024-02-26T01:18:02;0.38;;;0.38;;
30539;SDS011;17321;46.312;4.776;2024-02-26T01:20:28;0.85;;;0.40;;
30539;SDS011;17321;46.312;4.776;2024-02-26T01:22:54;0.60;;;0.20;;
30539;SDS011;17321;46.312;4.776;2024-02-26T01:25:20;0.25;;;0.22;;
30539;SDS011;17321;46.312;4.776;2024-02-26T01:27:46;0.35;;;0.35;;
30539;SDS011;17321;46.312;4.776;2024-02-26T01:30:12;0.40;;;0.30;;
30539;SDS011;17321;46.312;4.776;2024-02-26T01:32:41;2.35;;;0.82;;
30539;SDS011;17321;46.312;4.776;2024-02-26T01:35:07;0.28;;;0.20;;
30539;SDS011;17321;46.312;4.776;2024-02-26T01:37:35;0.30;;;0.00;;
30539;SDS011;17321;46.312;4.776;2024-02-26T01:40:01;0.45;;;0.30;;
30539;SDS011;17321;46.312;4.776;2024-02-26T01:42:31;0.40;;;0.30;;
30539;SDS011;17321;46.312;4.776;2024-02-26T01:44:58;2.10;;;0.17;;
30539;SDS011;17321;46.312;4.776;2024-02-26T01:47:24;0.80;;;0.40;;
30539;SDS011;17321;46.312;4.776;2024-02-26T01:49:51;0.20;;;0.20;;
30539;SDS011;17321;46.312;4.776;2024-02-26T01:52:17;0.22;;;0.20;;
30539;SDS011;17321;46.312;4.776;2024-02-26T01:54:43;0.30;;;0.22;;
30539;SDS011;17321;46.312;4.776;2024-02-26T01:57:11;0.35;;;0.20;;
30539;SDS011;17321;46.312;4.776;2024-02-26T01:59:38;0.30;;;0.20;;
30539;SDS011;17321;46.312;4.776;2024-02-26T02:02:06;0.20;;;0.20;;
30539;SDS011;17321;46.312;4.776;2024-02-26T02:04:34;0.55;;;0.30;;
30539;SDS011;17321;46.312;4.776;2024-02-26T02:07:00;0.50;;;0.20;;
30539;SDS011;17321;46.312;4.776;2024-02-26T02:09:27;0.20;;;0.15;;
30539;SDS011;17321;46.312;4.776;2024-02-26T02:11:53;0.10;;;0.10;;
30539;SDS011;17321;46.312;4.776;2024-02-26T02:14:20;0.32;;;0.10;;
30539;SDS011;17321;46.312;4.776;2024-02-26T02:16:46;0.30;;;0.30;;
30539;SDS011;17321;46.312;4.776;2024-02-26T02:19:13;0.20;;;0.20;;
30539;SDS011;17321;46.312;4.776;2024-02-26T02:21:39;0.32;;;0.32;;
30539;SDS011;17321;46.312;4.776;2024-02-26T02:24:05;0.25;;;0.10;;
30539;SDS011;17321;46.312;4.776;2024-02-26T02:26:31;0.20;;;0.13;;
30539;SDS011;17321;46.312;4.776;2024-02-26T02:28:57;0.20;;;0.17;;
30539;SDS011;17321;46.312;4.776;2024-02-26T02:31:23;0.45;;;0.20;;
30539;SDS011;17321;46.312;4.776;2024-02-26T02:33:49;0.68;;;0.30;;
30539;SDS011;17321;46.312;4.776;2024-02-26T02:36:16;1.45;;;0.25;;
30539;SDS011;17321;46.312;4.776;2024-02-26T02:38:48;1.35;;;0.25;;
30539;SDS011;17321;46.312;4.776;2024-02-26T02:41:18;0.32;;;0.28;;
30539;SDS011;17321;46.312;4.776;2024-02-26T02:43:44;0.28;;;0.22;;
30539;SDS011;17321;46.312;4.776;2024-02-26T02:46:10;0.88;;;0.30;;
30539;SDS011;17321;46.312;4.776;2024-02-26T02:48:39;0.20;;;0.20;;
30539;SDS011;17321;46.312;4.776;2024-02-26T02:51:07;0.22;;;0.20;;
30539;SDS011;17321;46.312;4.776;2024-02-26T02:53:33;0.55;;;0.13;;
30539;SDS011;17321;46.312;4.776;2024-02-26T02:55:59;0.95;;;0.30;;
30539;SDS011;17321;46.312;4.776;2024-02-26T02:58:25;0.43;;;0.20;;
30539;SDS011;17321;46.312;4.776;2024-02-26T03:00:51;0.38;;;0.20;;
30539;SDS011;17321;46.312;4.776;2024-02-26T03:03:17;0.40;;;0.13;;
30539;SDS011;17321;46.312;4.776;2024-02-26T03:05:43;0.10;;;0.10;;
30539;SDS011;17321;46.312;4.776;2024-02-26T03:08:09;0.30;;;0.30;;
30539;SDS011;17321;46.312;4.776;2024-02-26T03:10:35;0.10;;;0.10;;
30539;SDS011;17321;46.312;4.776;2024-02-26T03:13:01;2.45;;;0.20;;
30539;SDS011;17321;46.312;4.776;2024-02-26T03:15:27;0.20;;;0.13;;
30539;SDS011;17321;46.312;4.776;2024-02-26T03:17:53;0.13;;;0.10;;
30539;SDS011;17321;46.312;4.776;2024-02-26T03:20:19;0.03;;;0.03;;
30539;SDS011;17321;46.312;4.776;2024-02-26T03:22:45;0.20;;;0.20;;
30539;SDS011;17321;46.312;4.776;2024-02-26T03:25:11;0.10;;;0.10;;
30539;SDS011;17321;46.312;4.776;2024-02-26T03:27:37;0.20;;;0.20;;
30539;SDS011;17321;46.312;4.776;2024-02-26T03:30:03;0.45;;;0.10;;
30539;SDS011;17321;46.312;4.776;2024-02-26T03:32:30;0.60;;;0.20;;
30539;SDS011;17321;46.312;4.776;2024-02-26T03:34:55;2.92;;;0.10;;
30539;SDS011;17321;46.312;4.776;2024-02-26T03:37:22;0.20;;;0.20;;
30539;SDS011;17321;46.312;4.776;2024-02-26T03:39:48;0.32;;;0.10;;
30539;SDS011;17321;46.312;4.776;2024-02-26T03:42:14;0.50;;;0.30;;
30539;SDS011;17321;46.312;4.776;2024-02-26T03:44:41;0.13;;;0.13;;
30539;SDS011;17321;46.312;4.776;2024-02-26T03:47:07;0.65;;;0.20;;
30539;SDS011;17321;46.312;4.776;2024-02-26T03:49:33;0.30;;;0.20;;
30539;SDS011;17321;46.312;4.776;2024-02-26T03:51:59;0.90;;;0.20;;
30539;SDS011;17321;46.312;4.776;2024-02-26T03:54:25;2.72;;;0.30;;
30539;SDS011;17321;46.312;4.776;2024-02-26T03:56:51;0.20;;;0.10;;
30539;SDS011;17321;46.312;4.776;2024-02-26T03:59:17;0.90;;;0.25;;
30539;SDS011;17321;46.312;4.776;2024-02-26T04:01:46;0.50;;;0.10;;
30539;SDS011;17321;46.312;4.776;2024-02-26T04:04:13;0.40;;;0.10;;
30539;SDS011;17321;46.312;4.776;2024-02-26T04:06:39;1.45;;;0.20;;
30539;SDS011;17321;46.312;4.776;2024-02-26T04:09:05;0.63;;;0.28;;
30539;SDS011;17321;46.312;4.776;2024-02-26T04:11:31;0.28;;;0.20;;
30539;SDS011;17321;46.312;4.776;2024-02-26T04:13:57;0.32;;;0.20;;
30539;SDS011;17321;46.312;4.776;2024-02-26T04:16:23;0.43;;;0.28;;
30539;SDS011;17321;46.312;4.776;2024-02-26T04:18:49;0.28;;;0.20;;
30539;SDS011;17321;46.312;4.776;2024-02-26T04:21:15;2.45;;;0.30;;
30539;SDS011;17321;46.312;4.776;2024-02-26T04:23:41;0.20;;;0.20;;
30539;SDS011;17321;46.312;4.776;2024-02-26T04:26:07;1.00;;;0.10;;
30539;SDS011;17321;46.312;4.776;2024-02-26T04:28:33;0.20;;;0.20;;
30539;SDS011;17321;46.312;4.776;2024-02-26T04:30:59;0.20;;;0.10;;
30539;SDS011;17321;46.312;4.776;2024-02-26T04:33:25;2.15;;;0.10;;
30539;SDS011;17321;46.312;4.776;2024-02-26T04:35:51;2.13;;;0.40;;
30539;SDS011;17321;46.312;4.776;2024-02-26T04:38:17;1.90;;;0.22;;
30539;SDS011;17321;46.312;4.776;2024-02-26T04:40:43;0.35;;;0.30;;
30539;SDS011;17321;46.312;4.776;2024-02-26T04:43:09;0.47;;;0.10;;
30539;SDS011;17321;46.312;4.776;2024-02-26T04:45:35;0.38;;;0.20;;
30539;SDS011;17321;46.312;4.776;2024-02-26T04:48:01;0.28;;;0.10;;
30539;SDS011;17321;46.312;4.776;2024-02-26T04:50:27;0.47;;;0.30;;
30539;SDS011;17321;46.312;4.776;2024-02-26T04:52:53;1.23;;;0.28;;
30539;SDS011;17321;46.312;4.776;2024-02-26T04:55:19;0.30;;;0.20;;
30539;SDS011;17321;46.312;4.776;2024-02-26T04:57:45;2.10;;;0.38;;
30539;SDS011;17321;46.312;4.776;2024-02-26T05:00:12;0.30;;;0.30;;
30539;SDS011;17321;46.312;4.776;2024-02-26T05:02:38;0.10;;;0.10;;
30539;SDS011;17321;46.312;4.776;2024-02-26T05:05:05;1.90;;;0.45;;
30539;SDS011;17321;46.312;4.776;2024-02-26T05:07:31;0.10;;;0.10;;
30539;SDS011;17321;46.312;4.776;2024-02-26T05:09:57;0.50;;;0.40;;
30539;SDS011;17321;46.312;4.776;2024-02-26T05:12:24;0.35;;;0.20;;
30539;SDS011;17321;46.312;4.776;2024-02-26T05:14:50;0.68;;;0.25;;
30539;SDS011;17321;46.312;4.776;2024-02-26T05:17:16;0.40;;;0.30;;
30539;SDS011;17321;46.312;4.776;2024-02-26T05:19:42;0.50;;;0.10;;
30539;SDS011;17321;46.312;4.776;2024-02-26T05:22:08;2.15;;;0.30;;
30539;SDS011;17321;46.312;4.776;2024-02-26T05:24:34;0.20;;;0.20;;
30539;SDS011;17321;46.312;4.776;2024-02-26T05:27:03;0.15;;;0.13;;
30539;SDS011;17321;46.312;4.776;2024-02-26T05:29:29;0.95;;;0.20;;
30539;SDS011;17321;46.312;4.776;2024-02-26T05:31:55;0.30;;;0.30;;
30539;SDS011;17321;46.312;4.776;2024-02-26T05:34:21;0.98;;;0.20;;
30539;SDS011;17321;46.312;4.776;2024-02-26T05:36:47;0.20;;;0.20;;
30539;SDS011;17321;46.312;4.776;2024-02-26T05:39:13;0.68;;;0.30;;
30539;SDS011;17321;46.312;4.776;2024-02-26T05:41:39;0.43;;;0.28;;
30539;SDS011;17321;46.312;4.776;2024-02-26T05:44:07;0.73;;;0.30;;
30539;SDS011;17321;46.312;4.776;2024-02-26T05:46:35;0.35;;;0.32;;
30539;SDS011;17321;46.312;4.776;2024-02-26T05:49:01;0.43;;;0.32;;
30539;SDS011;17321;46.312;4.776;2024-02-26T05:51:28;0.20;;;0.20;;
30539;SDS011;17321;46.312;4.776;2024-02-26T05:53:54;0.82;;;0.35;;
30539;SDS011;17321;46.312;4.776;2024-02-26T05:56:20;2.35;;;0.50;;
30539;SDS011;17321;46.312;4.776;2024-02-26T05:58:46;1.35;;;0.35;;
30539;SDS011;17321;46.312;4.776;2024-02-26T06:01:13;3.10;;;0.30;;
30539;SDS011;17321;46.312;4.776;2024-02-26T06:03:39;2.40;;;0.30;;
30539;SDS011;17321;46.312;4.776;2024-02-26T06:06:05;0.45;;;0.30;;
30539;SDS011;17321;46.312;4.776;2024-02-26T06:08:31;0.20;;;0.20;;
30539;SDS011;17321;46.312;4.776;2024-02-26T06:10:57;0.95;;;0.40;;
30539;SDS011;17321;46.312;4.776;2024-02-26T06:13:23;0.50;;;0.40;;
30539;SDS011;17321;46.312;4.776;2024-02-26T06:15:49;3.92;;;0.35;;
30539;SDS011;17321;46.312;4.776;2024-02-26T06:18:15;0.40;;;0.40;;
30539;SDS011;17321;46.312;4.776;2024-02-26T06:20:41;2.70;;;0.40;;
30539;SDS011;17321;46.312;4.776;2024-02-26T06:23:07;0.73;;;0.60;;
30539;SDS011;17321;46.312;4.776;2024-02-26T06:25:35;0.90;;;0.50;;
30539;SDS011;17321;46.312;4.776;2024-02-26T06:28:01;0.52;;;0.40;;
30539;SDS011;17321;46.312;4.776;2024-02-26T06:30:27;0.47;;;0.40;;
30539;SDS011;17321;46.312;4.776;2024-02-26T06:32:53;0.63;;;0.50;;
30539;SDS011;17321;46.312;4.776;2024-02-26T06:35:19;0.45;;;0.45;;
30539;SDS011;17321;46.312;4.776;2024-02-26T06:37:45;2.63;;;0.40;;
30539;SDS011;17321;46.312;4.776;2024-02-26T06:40:11;0.40;;;0.40;;
30539;SDS011;17321;46.312;4.776;2024-02-26T06:42:37;0.85;;;0.35;;
30539;SDS011;17321;46.312;4.776;2024-02-26T06:45:03;0.40;;;0.40;;
30539;SDS011;17321;46.312;4.776;2024-02-26T06:47:29;0.95;;;0.55;;
30539;SDS011;17321;46.312;4.776;2024-02-26T06:49:55;0.45;;;0.40;;
30539;SDS011;17321;46.312;4.776;2024-02-26T06:52:23;0.82;;;0.80;;
30539;SDS011;17321;46.312;4.776;2024-02-26T06:54:50;2.63;;;0.93;;
30539;SDS011;17321;46.312;4.776;2024-02-26T06:57:17;1.70;;;0.70;;
30539;SDS011;17321;46.312;4.776;2024-02-26T06:59:43;0.95;;;0.63;;
30539;SDS011;17321;46.312;4.776;2024-02-26T07:02:12;1.75;;;0.95;;
30539;SDS011;17321;46.312;4.776;2024-02-26T07:04:38;0.80;;;0.50;;
30539;SDS011;17321;46.312;4.776;2024-02-26T07:07:04;0.75;;;0.70;;
30539;SDS011;17321;46.312;4.776;2024-02-26T07:09:30;0.98;;;0.60;;
30539;SDS011;17321;46.312;4.776;2024-02-26T07:11:56;0.82;;;0.57;;
30539;SDS011;17321;46.312;4.776;2024-02-26T07:14:22;0.68;;;0.68;;
30539;SDS011;17321;46.312;4.776;2024-02-26T07:16:49;1.08;;;0.80;;
30539;SDS011;17321;46.312;4.776;2024-02-26T07:19:15;2.83;;;0.88;;
30539;SDS011;17321;46.312;4.776;2024-02-26T07:21:41;1.17;;;0.63;;
30539;SDS011;17321;46.312;4.776;2024-02-26T07:24:08;1.35;;;1.15;;
30539;SDS011;17321;46.312;4.776;2024-02-26T07:26:34;0.75;;;0.75;;
30539;SDS011;17321;46.312;4.776;2024-02-26T07:29:00;3.25;;;0.85;;
30539;SDS011;17321;46.312;4.776;2024-02-26T07:31:26;0.65;;;0.60;;
30539;SDS011;17321;46.312;4.776;2024-02-26T07:33:52;2.38;;;0.70;;
30539;SDS011;17321;46.312;4.776;2024-02-26T07:36:18;0.80;;;0.70;;
30539;SDS011;17321;46.312;4.776;2024-02-26T07:38:44;6.45;;;0.47;;
30539;SDS011;17321;46.312;4.776;2024-02-26T07:41:11;0.70;;;0.55;;
30539;SDS011;17321;46.312;4.776;2024-02-26T07:43:37;1.02;;;0.80;;
30539;SDS011;17321;46.312;4.776;2024-02-26T07:46:03;1.08;;;0.63;;
30539;SDS011;17321;46.312;4.776;2024-02-26T07:48:29;0.63;;;0.63;;
30539;SDS011;17321;46.312;4.776;2024-02-26T07:50:55;0.82;;;0.65;;
30539;SDS011;17321;46.312;4.776;2024-02-26T07:53:22;0.90;;;0.88;;
30539;SDS011;17321;46.312;4.776;2024-02-26T07:55:48;1.20;;;1.10;;
30539;SDS011;17321;46.312;4.776;2024-02-26T07:58:14;1.88;;;0.93;;
30539;SDS011;17321;46.312;4.776;2024-02-26T08:00:40;1.77;;;1.20;;
30539;SDS011;17321;46.312;4.776;2024-02-26T08:03:06;1.23;;;1.13;;
30539;SDS011;17321;46.312;4.776;2024-02-26T08:05:32;1.33;;;1.08;;
30539;SDS011;17321;46.312;4.776;2024-02-26T08:07:58;1.48;;;0.93;;
30539;SDS011;17321;46.312;4.776;2024-02-26T08:10:24;1.08;;;0.85;;
30539;SDS011;17321;46.312;4.776;2024-02-26T08:12:50;1.42;;;1.10;;
30539;SDS011;17321;46.312;4.776;2024-02-26T08:15:17;2.63;;;1.05;;
30539;SDS011;17321;46.312;4.776;2024-02-26T08:17:43;1.10;;;0.95;;
30539;SDS011;17321;46.312;4.776;2024-02-26T08:20:10;1.67;;;1.30;;
30539;SDS011;17321;46.312;4.776;2024-02-26T08:22:36;3.25;;;1.60;;
30539;SDS011;17321;46.312;4.776;2024-02-26T08:25:04;15.77;;;2.17;;
30539;SDS011;17321;46.312;4.776;2024-02-26T08:27:32;2.72;;;1.10;;
30539;SDS011;17321;46.312;4.776;2024-02-26T08:29:58;12.07;;;1.95;;
30539;SDS011;17321;46.312;4.776;2024-02-26T08:32:24;3.88;;;1.42;;
30539;SDS011;17321;46.312;4.776;2024-02-26T08:34:50;1.42;;;1.33;;
30539;SDS011;17321;46.312;4.776;2024-02-26T08:37:16;1.83;;;1.70;;
30539;SDS011;17321;46.312;4.776;2024-02-26T08:39:42;4.22;;;1.70;;
30539;SDS011;17321;46.312;4.776;2024-02-26T08:42:08;1.85;;;1.33;;
30539;SDS011;17321;46.312;4.776;2024-02-26T08:44:34;10.00;;;1.50;;
30539;SDS011;17321;46.312;4.776;2024-02-26T08:47:00;2.03;;;1.52;;
30539;SDS011;17321;46.312;4.776;2024-02-26T08:49:27;3.55;;;1.38;;
30539;SDS011;17321;46.312;4.776;2024-02-26T08:51:53;1.95;;;0.75;;
30539;SDS011;17321;46.312;4.776;2024-02-26T08:54:19;3.20;;;0.95;;
30539;SDS011;17321;46.312;4.776;2024-02-26T08:56:45;2.95;;;0.50;;
30539;SDS011;17321;46.312;4.776;2024-02-26T08:59:11;0.60;;;0.40;;
30539;SDS011;17321;46.312;4.776;2024-02-26T09:01:37;1.63;;;0.60;;
30539;SDS011;17321;46.312;4.776;2024-02-26T09:04:03;4.50;;;0.60;;
30539;SDS011;17321;46.312;4.776;2024-02-26T09:06:29;1.05;;;0.57;;
30539;SDS011;17321;46.312;4.776;2024-02-26T09:08:55;1.48;;;0.57;;
30539;SDS011;17321;46.312;4.776;2024-02-26T09:11:21;3.35;;;0.77;;
30539;SDS011;17321;46.312;4.776;2024-02-26T09:13:47;1.80;;;0.77;;
30539;SDS011;17321;46.312;4.776;2024-02-26T09:16:13;3.50;;;1.00;;
30539;SDS011;17321;46.312;4.776;2024-02-26T09:18:39;0.63;;;0.45;;
30539;SDS011;17321;46.312;4.776;2024-02-26T09:21:05;5.78;;;1.20;;
30539;SDS011;17321;46.312;4.776;2024-02-26T09:23:31;6.53;;;3.47;;
30539;SDS011;17321;46.312;4.776;2024-02-26T09:25:58;2.55;;;1.35;;
30539;SDS011;17321;46.312;4.776;2024-02-26T09:28:24;11.70;;;6.35;;
30539;SDS011;17321;46.312;4.776;2024-02-26T09:30:50;4.25;;;2.83;;
30539;SDS011;17321;46.312;4.776;2024-02-26T09:33:16;14.10;;;8.55;;
30539;SDS011;17321;46.312;4.776;2024-02-26T09:35:42;15.82;;;9.25;;
30539;SDS011;17321;46.312;4.776;2024-02-26T09:38:08;6.07;;;1.90;;
30539;SDS011;17321;46.312;4.776;2024-02-26T09:40:34;3.05;;;1.88;;
30539;SDS011;17321;46.312;4.776;2024-02-26T09:43:00;6.80;;;5.28;;
30539;SDS011;17321;46.312;4.776;2024-02-26T09:45:27;8.43;;;6.15;;
30539;SDS011;17321;46.312;4.776;2024-02-26T09:47:55;5.30;;;3.50;;
30539;SDS011;17321;46.312;4.776;2024-02-26T09:50:21;1.23;;;0.73;;
30539;SDS011;17321;46.312;4.776;2024-02-26T09:52:48;2.92;;;0.73;;
30539;SDS011;17321;46.312;4.776;2024-02-26T09:55:14;4.03;;;0.77;;
30539;SDS011;17321;46.312;4.776;2024-02-26T09:57:44;7.80;;;1.05;;
30539;SDS011;17321;46.312;4.776;2024-02-26T10:00:11;2.90;;;0.60;;
30539;SDS011;17321;46.312;4.776;2024-02-26T10:02:40;0.93;;;0.40;;
30539;SDS011;17321;46.312;4.776;2024-02-26T10:05:07;4.80;;;0.65;;
30539;SDS011;17321;46.312;4.776;2024-02-26T10:07:33;10.95;;;1.98;;
30539;SDS011;17321;46.312;4.776;2024-02-26T10:09:59;2.67;;;1.88;;
30539;SDS011;17321;46.312;4.776;2024-02-26T10:12:25;3.55;;;0.70;;
30539;SDS011;17321;46.312;4.776;2024-02-26T10:14:53;0.93;;;0.40;;
30539;SDS011;17321;46.312;4.776;2024-02-26T10:17:19;1.00;;;0.60;;
30539;SDS011;17321;46.312;4.776;2024-02-26T10:19:45;0.30;;;0.30;;
30539;SDS011;17321;46.312;4.776;2024-02-26T10:22:11;0.90;;;0.30;;
30539;SDS011;17321;46.312;4.776;2024-02-26T10:24:37;3.85;;;1.23;;
30539;SDS011;17321;46.312;4.776;2024-02-26T10:27:03;3.10;;;1.35;;
30539;SDS011;17321;46.312;4.776;2024-02-26T10:29:30;3.42;;;1.95;;
30539;SDS011;17321;46.312;4.776;2024-02-26T10:31:57;6.82;;;0.68;;
30539;SDS011;17321;46.312;4.776;2024-02-26T10:34:23;0.65;;;0.43;;
30539;SDS011;17321;46.312;4.776;2024-02-26T10:36:49;0.65;;;0.30;;
30539;SDS011;17321;46.312;4.776;2024-02-26T10:39:15;0.85;;;0.45;;
30539;SDS011;17321;46.312;4.776;2024-02-26T10:41:43;1.20;;;0.50;;
30539;SDS011;17321;46.312;4.776;2024-02-26T10:44:09;5.13;;;0.60;;
30539;SDS011;17321;46.312;4.776;2024-02-26T10:46:36;2.20;;;0.90;;
30539;SDS011;17321;46.312;4.776;2024-02-26T10:49:02;5.10;;;1.20;;
30539;SDS011;17321;46.312;4.776;2024-02-26T10:51:31;3.42;;;2.28;;
30539;SDS011;17321;46.312;4.776;2024-02-26T10:53:58;0.95;;;0.90;;
30539;SDS011;17321;46.312;4.776;2024-02-26T10:56:27;5.38;;;0.93;;
30539;SDS011;17321;46.312;4.776;2024-02-26T10:58:53;1.67;;;0.70;;
30539;SDS011;17321;46.312;4.776;2024-02-26T11:01:20;1.23;;;0.60;;
30539;SDS011;17321;46.312;4.776;2024-02-26T11:03:50;2.67;;;0.60;;
30539;SDS011;17321;46.312;4.776;2024-02-26T11:06:17;0.90;;;0.45;;
30539;SDS011;17321;46.312;4.776;2024-02-26T11:08:43;2.67;;;0.80;;
30539;SDS011;17321;46.312;4.776;2024-02-26T11:11:09;1.98;;;0.85;;
30539;SDS011;17321;46.312;4.776;2024-02-26T11:13:40;1.45;;;0.55;;
30539;SDS011;17321;46.312;4.776;2024-02-26T11:16:10;2.17;;;0.60;;
30539;SDS011;17321;46.312;4.776;2024-02-26T11:18:36;1.60;;;0.30;;
30539;SDS011;17321;46.312;4.776;2024-02-26T11:21:02;1.38;;;0.60;;
30539;SDS011;17321;46.312;4.776;2024-02-26T11:23:29;2.83;;;0.57;;
30539;SDS011;17321;46.312;4.776;2024-02-26T11:25:55;0.82;;;0.40;;
30539;SDS011;17321;46.312;4.776;2024-02-26T11:28:24;1.38;;;0.50;;
30539;SDS011;17321;46.312;4.776;2024-02-26T11:30:51;2.92;;;0.50;;
30539;SDS011;17321;46.312;4.776;2024-02-26T11:33:18;2.15;;;0.93;;
30539;SDS011;17321;46.312;4.776;2024-02-26T11:35:45;1.88;;;0.60;;
30539;SDS011;17321;46.312;4.776;2024-02-26T11:38:17;0.73;;;0.55;;
30539;SDS011;17321;46.312;4.776;2024-02-26T11:40:43;0.93;;;0.70;;
30539;SDS011;17321;46.312;4.776;2024-02-26T11:43:09;1.77;;;0.95;;
30539;SDS011;17321;46.312;4.776;2024-02-26T11:50:34;0.63;;;0.60;;
30539;SDS011;17321;46.312;4.776;2024-02-26T11:55:45;1.27;;;0.68;;
30539;SDS011;17321;46.312;4.776;2024-02-26T12:04:00;1.58;;;0.60;;
30539;SDS011;17321;46.312;4.776;2024-02-26T12:06:27;0.93;;;0.65;;
30539;SDS011;17321;46.312;4.776;2024-02-26T12:08:53;1.27;;;0.77;;
30539;SDS011;17321;46.312;4.776;2024-02-26T12:11:20;0.50;;;0.47;;
30539;SDS011;17321;46.312;4.776;2024-02-26T12:13:49;2.90;;;0.73;;
30539;SDS011;17321;46.312;4.776;2024-02-26T12:16:49;3.60;;;0.60;;
30539;SDS011;17321;46.312;4.776;2024-02-26T12:19:10;14.45;;;1.08;;
30539;SDS011;17321;46.312;4.776;2024-02-26T12:21:36;3.30;;;0.75;;
30539;SDS011;17321;46.312;4.776;2024-02-26T12:24:12;1.10;;;0.60;;
30539;SDS011;17321;46.312;4.776;2024-02-26T12:26:39;1.60;;;0.77;;
30539;SDS011;17321;46.312;4.776;2024-02-26T12:29:06;1.10;;;0.57;;
30539;SDS011;17321;46.312;4.776;2024-02-26T12:31:32;2.45;;;0.80;;
30539;SDS011;17321;46.312;4.776;2024-02-26T12:33:59;2.03;;;0.50;;
30539;SDS011;17321;46.312;4.776;2024-02-26T12:36:25;0.40;;;0.40;;
30539;SDS011;17321;46.312;4.776;2024-02-26T12:38:51;1.08;;;0.47;;
30539;SDS011;17321;46.312;4.776;2024-02-26T12:41:17;9.65;;;1.10;;
30539;SDS011;17321;46.312;4.776;2024-02-26T12:43:44;5.28;;;0.65;;
30539;SDS011;17321;46.312;4.776;2024-02-26T12:46:10;9.55;;;0.75;;
30539;SDS011;17321;46.312;4.776;2024-02-26T12:48:37;3.05;;;1.45;;
30539;SDS011;17321;46.312;4.776;2024-02-26T12:51:04;1.15;;;0.80;;
30539;SDS011;17321;46.312;4.776;2024-02-26T12:53:31;3.03;;;1.50;;
30539;SDS011;17321;46.312;4.776;2024-02-26T12:55:57;0.85;;;0.50;;
30539;SDS011;17321;46.312;4.776;2024-02-26T12:58:23;1.92;;;0.50;;
30539;SDS011;17321;46.312;4.776;2024-02-26T13:00:50;3.83;;;0.43;;
30539;SDS011;17321;46.312;4.776;2024-02-26T13:03:17;1.67;;;0.57;;
30539;SDS011;17321;46.312;4.776;2024-02-26T13:05:43;1.48;;;0.50;;
30539;SDS011;17321;46.312;4.776;2024-02-26T13:08:09;1.08;;;0.52;;
30539;SDS011;17321;46.312;4.776;2024-02-26T13:10:35;3.70;;;0.40;;
30539;SDS011;17321;46.312;4.776;2024-02-26T13:13:02;1.23;;;0.52;;
30539;SDS011;17321;46.312;4.776;2024-02-26T13:15:28;1.67;;;0.90;;
30539;SDS011;17321;46.312;4.776;2024-02-26T13:17:54;1.60;;;0.50;;
30539;SDS011;17321;46.312;4.776;2024-02-26T13:20:28;9.18;;;0.93;;
30539;SDS011;17321;46.312;4.776;2024-02-26T13:23:03;1.25;;;0.50;;
30539;SDS011;17321;46.312;4.776;2024-02-26T13:25:30;1.95;;;1.08;;
30539;SDS011;17321;46.312;4.776;2024-02-26T13:28:06;3.13;;;0.50;;
30539;SDS011;17321;46.312;4.776;2024-02-26T13:30:33;1.90;;;0.60;;
30539;SDS011;17321;46.312;4.776;2024-02-26T13:33:06;1.15;;;0.40;;
30539;SDS011;17321;46.312;4.776;2024-02-26T13:35:33;1.13;;;0.55;;
30539;SDS011;17321;46.312;4.776;2024-02-26T13:38:00;2.17;;;0.63;;
30539;SDS011;17321;46.312;4.776;2024-02-26T13:40:26;5.75;;;1.35;;
30539;SDS011;17321;46.312;4.776;2024-02-26T13:42:52;1.70;;;0.50;;
30539;SDS011;17321;46.312;4.776;2024-02-26T13:45:18;3.58;;;0.63;;
30539;SDS011;17321;46.312;4.776;2024-02-26T13:47:44;0.85;;;0.50;;
30539;SDS011;17321;46.312;4.776;2024-02-26T13:50:10;1.17;;;0.50;;
30539;SDS011;17321;46.312;4.776;2024-02-26T13:52:36;2.95;;;0.47;;
30539;SDS011;17321;46.312;4.776;2024-02-26T13:55:02;3.00;;;0.60;;
30539;SDS011;17321;46.312;4.776;2024-02-26T13:57:28;0.88;;;0.50;;
30539;SDS011;17321;46.312;4.776;2024-02-26T13:59:54;0.77;;;0.28;;
30539;SDS011;17321;46.312;4.776;2024-02-26T14:02:21;4.35;;;0.60;;
30539;SDS011;17321;46.312;4.776;2024-02-26T14:04:47;0.57;;;0.30;;
30539;SDS011;17321;46.312;4.776;2024-02-26T14:07:13;2.50;;;0.50;;
30539;SDS011;17321;46.312;4.776;2024-02-26T14:09:39;1.08;;;0.47;;
30539;SDS011;17321;46.312;4.776;2024-02-26T14:12:05;1.08;;;0.60;;
30539;SDS011;17321;46.312;4.776;2024-02-26T14:17:20;1.60;;;0.75;;
30539;SDS011;17321;46.312;4.776;2024-02-26T14:19:47;3.55;;;0.32;;
30539;SDS011;17321;46.312;4.776;2024-02-26T14:22:13;0.63;;;0.30;;
30539;SDS011;17321;46.312;4.776;2024-02-26T14:24:42;3.60;;;0.60;;
30539;SDS011;17321;46.312;4.776;2024-02-26T14:27:09;5.57;;;0.52;;
30539;SDS011;17321;46.312;4.776;2024-02-26T14:29:36;1.80;;;0.55;;
30539;SDS011;17321;46.312;4.776;2024-02-26T14:32:03;1.75;;;0.75;;
30539;SDS011;17321;46.312;4.776;2024-02-26T14:34:29;4.15;;;0.50;;
30539;SDS011;17321;46.312;4.776;2024-02-26T14:36:55;2.15;;;0.70;;
30539;SDS011;17321;46.312;4.776;2024-02-26T14:39:21;2.60;;;0.55;;
30539;SDS011;17321;46.312;4.776;2024-02-26T14:41:48;1.08;;;0.40;;
30539;SDS011;17321;46.312;4.776;2024-02-26T14:44:14;1.15;;;0.40;;
30539;SDS011;17321;46.312;4.776;2024-02-26T14:46:40;2.95;;;0.70;;
30539;SDS011;17321;46.312;4.776;2024-02-26T14:49:06;0.50;;;0.50;;
30539;SDS011;17321;46.312;4.776;2024-02-26T14:51:32;0.90;;;0.30;;
30539;SDS011;17321;46.312;4.776;2024-02-26T14:53:58;0.73;;;0.30;;
30539;SDS011;17321;46.312;4.776;2024-02-26T14:56:26;2.50;;;0.43;;
30539;SDS011;17321;46.312;4.776;2024-02-26T14:58:52;3.78;;;0.60;;